sensor_id;sensor_type;location;lat;lon;timestamp;P1;durP1;ratioP1;P2;durP2;ratioP2
60076;SDS011;45950;45.208;20.374;2023-05-10T00:00:26;9.77;;;7.50;;
60076;SDS011;45950;45.208;20.374;2023-05-10T00:02:53;13.50;;;7.93;;
60076;SDS011;45950;45.208;20.374;2023-05-10T00:05:19;16.05;;;7.72;;
60076;SDS011;45950;45.208;20.374;2023-05-10T00:07:47;11.43;;;7.97;;
60076;SDS011;45950;45.208;20.374;2023-05-10T00:10:14;10.20;;;7.13;;
60076;SDS011;45950;45.208;20.374;2023-05-10T00:12:41;13.93;;;7.57;;
60076;SDS011;45950;45.208;20.374;2023-05-10T00:17:57;11.05;;;6.60;;
60076;SDS011;45950;45.208;20.374;2023-05-10T00:20:24;9.32;;;7.60;;
60076;SDS011;45950;45.208;20.374;2023-05-10T00:22:52;9.93;;;7.57;;
60076;SDS011;45950;45.208;20.374;2023-05-10T00:25:19;9.35;;;7.18;;
60076;SDS011;45950;45.208;20.374;2023-05-10T00:27:46;9.93;;;7.38;;
60076;SDS011;45950;45.208;20.374;2023-05-10T00:30:13;9.77;;;7.35;;
60076;SDS011;45950;45.208;20.374;2023-05-10T00:32:40;10.27;;;7.40;;
60076;SDS011;45950;45.208;20.374;2023-05-10T00:35:06;11.05;;;8.30;;
60076;SDS011;45950;45.208;20.374;2023-05-10T00:37:33;9.38;;;7.50;;
60076;SDS011;45950;45.208;20.374;2023-05-10T00:40:01;13.55;;;8.55;;
60076;SDS011;45950;45.208;20.374;2023-05-10T00:42:28;10.68;;;7.10;;
60076;SDS011;45950;45.208;20.374;2023-05-10T00:44:54;12.13;;;8.68;;
60076;SDS011;45950;45.208;20.374;2023-05-10T00:47:21;11.05;;;8.27;;
60076;SDS011;45950;45.208;20.374;2023-05-10T00:49:48;10.93;;;8.25;;
60076;SDS011;45950;45.208;20.374;2023-05-10T00:52:14;9.95;;;8.13;;
60076;SDS011;45950;45.208;20.374;2023-05-10T00:54:41;10.48;;;8.48;;
60076;SDS011;45950;45.208;20.374;2023-05-10T00:57:09;12.00;;;9.10;;
60076;SDS011;45950;45.208;20.374;2023-05-10T00:59:39;10.52;;;8.07;;
60076;SDS011;45950;45.208;20.374;2023-05-10T01:02:06;11.38;;;8.15;;
60076;SDS011;45950;45.208;20.374;2023-05-10T01:04:33;10.18;;;8.20;;
60076;SDS011;45950;45.208;20.374;2023-05-10T01:06:59;13.10;;;8.38;;
60076;SDS011;45950;45.208;20.374;2023-05-10T01:09:26;11.48;;;8.40;;
60076;SDS011;45950;45.208;20.374;2023-05-10T01:11:53;13.10;;;9.10;;
60076;SDS011;45950;45.208;20.374;2023-05-10T01:14:21;11.48;;;9.23;;
60076;SDS011;45950;45.208;20.374;2023-05-10T01:16:49;12.15;;;8.30;;
60076;SDS011;45950;45.208;20.374;2023-05-10T01:19:18;12.13;;;8.73;;
60076;SDS011;45950;45.208;20.374;2023-05-10T01:21:48;9.77;;;8.27;;
60076;SDS011;45950;45.208;20.374;2023-05-10T01:24:28;10.88;;;8.98;;
60076;SDS011;45950;45.208;20.374;2023-05-10T01:27:14;13.20;;;8.90;;
60076;SDS011;45950;45.208;20.374;2023-05-10T01:29:49;10.77;;;8.30;;
60076;SDS011;45950;45.208;20.374;2023-05-10T01:32:25;9.10;;;7.72;;
60076;SDS011;45950;45.208;20.374;2023-05-10T01:34:55;9.23;;;7.55;;
60076;SDS011;45950;45.208;20.374;2023-05-10T01:37:26;12.38;;;8.05;;
60076;SDS011;45950;45.208;20.374;2023-05-10T01:39:57;10.20;;;7.65;;
60076;SDS011;45950;45.208;20.374;2023-05-10T01:42:37;8.65;;;7.28;;
60076;SDS011;45950;45.208;20.374;2023-05-10T01:45:07;10.05;;;8.07;;
60076;SDS011;45950;45.208;20.374;2023-05-10T01:47:38;8.35;;;7.03;;
60076;SDS011;45950;45.208;20.374;2023-05-10T01:50:14;9.80;;;6.88;;
60076;SDS011;45950;45.208;20.374;2023-05-10T01:52:42;9.18;;;6.78;;
60076;SDS011;45950;45.208;20.374;2023-05-10T01:55:11;7.32;;;6.47;;
60076;SDS011;45950;45.208;20.374;2023-05-10T01:57:39;10.60;;;6.70;;
60076;SDS011;45950;45.208;20.374;2023-05-10T02:00:07;10.32;;;7.72;;
60076;SDS011;45950;45.208;20.374;2023-05-10T02:02:35;10.30;;;7.38;;
60076;SDS011;45950;45.208;20.374;2023-05-10T02:05:05;8.10;;;7.18;;
60076;SDS011;45950;45.208;20.374;2023-05-10T02:07:32;14.57;;;7.15;;
60076;SDS011;45950;45.208;20.374;2023-05-10T02:09:59;8.57;;;6.78;;
60076;SDS011;45950;45.208;20.374;2023-05-10T02:12:26;8.45;;;6.57;;
60076;SDS011;45950;45.208;20.374;2023-05-10T02:14:53;8.07;;;6.60;;
60076;SDS011;45950;45.208;20.374;2023-05-10T02:17:20;7.50;;;6.30;;
60076;SDS011;45950;45.208;20.374;2023-05-10T02:19:47;8.57;;;6.07;;
60076;SDS011;45950;45.208;20.374;2023-05-10T02:22:16;9.00;;;7.40;;
60076;SDS011;45950;45.208;20.374;2023-05-10T02:24:43;8.18;;;6.47;;
60076;SDS011;45950;45.208;20.374;2023-05-10T02:27:17;8.95;;;7.22;;
60076;SDS011;45950;45.208;20.374;2023-05-10T02:29:45;8.68;;;7.63;;
60076;SDS011;45950;45.208;20.374;2023-05-10T02:32:12;11.23;;;6.88;;
60076;SDS011;45950;45.208;20.374;2023-05-10T02:34:39;8.43;;;6.72;;
60076;SDS011;45950;45.208;20.374;2023-05-10T02:37:05;10.40;;;7.13;;
60076;SDS011;45950;45.208;20.374;2023-05-10T02:39:34;9.13;;;7.22;;
60076;SDS011;45950;45.208;20.374;2023-05-10T02:42:01;10.95;;;7.43;;
60076;SDS011;45950;45.208;20.374;2023-05-10T02:44:28;8.75;;;7.15;;
60076;SDS011;45950;45.208;20.374;2023-05-10T02:46:56;9.40;;;7.03;;
60076;SDS011;45950;45.208;20.374;2023-05-10T02:49:23;10.93;;;7.50;;
60076;SDS011;45950;45.208;20.374;2023-05-10T02:51:51;11.30;;;7.50;;
60076;SDS011;45950;45.208;20.374;2023-05-10T02:54:22;10.80;;;7.82;;
60076;SDS011;45950;45.208;20.374;2023-05-10T02:56:53;12.30;;;7.72;;
60076;SDS011;45950;45.208;20.374;2023-05-10T02:59:22;9.13;;;7.97;;
60076;SDS011;45950;45.208;20.374;2023-05-10T03:01:49;11.77;;;7.60;;
60076;SDS011;45950;45.208;20.374;2023-05-10T03:04:16;10.27;;;7.18;;
60076;SDS011;45950;45.208;20.374;2023-05-10T03:06:42;12.13;;;7.97;;
60076;SDS011;45950;45.208;20.374;2023-05-10T03:09:09;10.38;;;8.73;;
60076;SDS011;45950;45.208;20.374;2023-05-10T03:11:40;9.60;;;8.05;;
60076;SDS011;45950;45.208;20.374;2023-05-10T03:14:13;11.80;;;7.85;;
60076;SDS011;45950;45.208;20.374;2023-05-10T03:16:44;8.40;;;7.07;;
60076;SDS011;45950;45.208;20.374;2023-05-10T03:19:12;10.32;;;7.32;;
60076;SDS011;45950;45.208;20.374;2023-05-10T03:21:41;8.65;;;7.05;;
60076;SDS011;45950;45.208;20.374;2023-05-10T03:24:08;10.00;;;8.18;;
60076;SDS011;45950;45.208;20.374;2023-05-10T03:26:37;13.40;;;8.68;;
60076;SDS011;45950;45.208;20.374;2023-05-10T03:29:03;12.35;;;8.63;;
60076;SDS011;45950;45.208;20.374;2023-05-10T03:31:32;9.07;;;7.07;;
60076;SDS011;45950;45.208;20.374;2023-05-10T03:33:58;9.85;;;7.45;;
60076;SDS011;45950;45.208;20.374;2023-05-10T03:36:25;9.20;;;7.25;;
60076;SDS011;45950;45.208;20.374;2023-05-10T03:38:52;8.75;;;7.25;;
60076;SDS011;45950;45.208;20.374;2023-05-10T03:41:24;9.45;;;7.32;;
60076;SDS011;45950;45.208;20.374;2023-05-10T03:43:51;9.45;;;7.10;;
60076;SDS011;45950;45.208;20.374;2023-05-10T03:46:17;9.75;;;7.68;;
60076;SDS011;45950;45.208;20.374;2023-05-10T03:48:45;13.98;;;9.23;;
60076;SDS011;45950;45.208;20.374;2023-05-10T03:51:12;8.70;;;7.00;;
60076;SDS011;45950;45.208;20.374;2023-05-10T03:53:39;9.57;;;7.90;;
60076;SDS011;45950;45.208;20.374;2023-05-10T03:56:05;9.13;;;7.80;;
60076;SDS011;45950;45.208;20.374;2023-05-10T03:58:32;9.02;;;6.95;;
60076;SDS011;45950;45.208;20.374;2023-05-10T04:01:04;8.70;;;6.47;;
60076;SDS011;45950;45.208;20.374;2023-05-10T04:03:31;10.20;;;7.60;;
60076;SDS011;45950;45.208;20.374;2023-05-10T04:06:02;10.77;;;7.50;;
60076;SDS011;45950;45.208;20.374;2023-05-10T04:08:28;10.63;;;7.85;;
60076;SDS011;45950;45.208;20.374;2023-05-10T04:11:04;12.18;;;7.93;;
60076;SDS011;45950;45.208;20.374;2023-05-10T04:13:30;8.98;;;7.60;;
60076;SDS011;45950;45.208;20.374;2023-05-10T04:15:57;9.30;;;7.13;;
60076;SDS011;45950;45.208;20.374;2023-05-10T04:18:24;7.88;;;6.63;;
60076;SDS011;45950;45.208;20.374;2023-05-10T04:20:50;8.20;;;6.47;;
60076;SDS011;45950;45.208;20.374;2023-05-10T04:23:20;8.20;;;6.57;;
60076;SDS011;45950;45.208;20.374;2023-05-10T04:25:47;10.80;;;7.00;;
60076;SDS011;45950;45.208;20.374;2023-05-10T04:28:14;9.82;;;7.38;;
60076;SDS011;45950;45.208;20.374;2023-05-10T04:30:40;10.20;;;7.45;;
60076;SDS011;45950;45.208;20.374;2023-05-10T04:33:07;9.70;;;7.28;;
60076;SDS011;45950;45.208;20.374;2023-05-10T04:35:34;9.50;;;7.70;;
60076;SDS011;45950;45.208;20.374;2023-05-10T04:41:07;8.60;;;7.63;;
60076;SDS011;45950;45.208;20.374;2023-05-10T04:43:34;8.43;;;6.97;;
60076;SDS011;45950;45.208;20.374;2023-05-10T04:48:57;10.82;;;7.90;;
60076;SDS011;45950;45.208;20.374;2023-05-10T04:51:24;9.57;;;8.15;;
60076;SDS011;45950;45.208;20.374;2023-05-10T04:53:51;11.50;;;8.32;;
60076;SDS011;45950;45.208;20.374;2023-05-10T04:56:19;12.32;;;7.88;;
60076;SDS011;45950;45.208;20.374;2023-05-10T04:58:47;13.05;;;8.73;;
60076;SDS011;45950;45.208;20.374;2023-05-10T05:01:13;11.77;;;8.75;;
60076;SDS011;45950;45.208;20.374;2023-05-10T05:03:40;11.82;;;8.07;;
60076;SDS011;45950;45.208;20.374;2023-05-10T05:06:07;9.18;;;7.55;;
60076;SDS011;45950;45.208;20.374;2023-05-10T05:08:34;12.75;;;8.73;;
60076;SDS011;45950;45.208;20.374;2023-05-10T05:11:00;9.40;;;7.82;;
60076;SDS011;45950;45.208;20.374;2023-05-10T05:13:28;9.82;;;8.00;;
60076;SDS011;45950;45.208;20.374;2023-05-10T05:15:55;10.40;;;7.97;;
60076;SDS011;45950;45.208;20.374;2023-05-10T05:18:21;10.43;;;8.60;;
60076;SDS011;45950;45.208;20.374;2023-05-10T05:20:48;9.55;;;7.70;;
60076;SDS011;45950;45.208;20.374;2023-05-10T05:23:15;9.90;;;7.20;;
60076;SDS011;45950;45.208;20.374;2023-05-10T05:25:41;8.75;;;7.85;;
60076;SDS011;45950;45.208;20.374;2023-05-10T05:28:08;8.43;;;7.10;;
60076;SDS011;45950;45.208;20.374;2023-05-10T05:30:36;10.10;;;7.63;;
60076;SDS011;45950;45.208;20.374;2023-05-10T05:33:02;8.32;;;7.30;;
60076;SDS011;45950;45.208;20.374;2023-05-10T05:35:29;11.02;;;7.40;;
60076;SDS011;45950;45.208;20.374;2023-05-10T05:37:56;9.45;;;7.97;;
60076;SDS011;45950;45.208;20.374;2023-05-10T05:40:22;9.32;;;7.35;;
60076;SDS011;45950;45.208;20.374;2023-05-10T05:42:49;8.75;;;7.38;;
60076;SDS011;45950;45.208;20.374;2023-05-10T05:45:16;10.00;;;7.43;;
60076;SDS011;45950;45.208;20.374;2023-05-10T05:47:51;11.02;;;7.15;;
60076;SDS011;45950;45.208;20.374;2023-05-10T05:50:18;8.45;;;6.65;;
60076;SDS011;45950;45.208;20.374;2023-05-10T05:52:44;8.32;;;7.18;;
60076;SDS011;45950;45.208;20.374;2023-05-10T05:55:11;11.07;;;7.55;;
60076;SDS011;45950;45.208;20.374;2023-05-10T05:57:39;12.25;;;7.55;;
60076;SDS011;45950;45.208;20.374;2023-05-10T06:00:06;10.77;;;7.45;;
60076;SDS011;45950;45.208;20.374;2023-05-10T06:02:32;9.43;;;7.95;;
60076;SDS011;45950;45.208;20.374;2023-05-10T06:05:00;10.35;;;8.00;;
60076;SDS011;45950;45.208;20.374;2023-05-10T06:07:27;11.32;;;7.63;;
60076;SDS011;45950;45.208;20.374;2023-05-10T06:09:55;12.38;;;7.32;;
60076;SDS011;45950;45.208;20.374;2023-05-10T06:12:22;8.52;;;7.22;;
60076;SDS011;45950;45.208;20.374;2023-05-10T06:14:52;8.00;;;6.95;;
60076;SDS011;45950;45.208;20.374;2023-05-10T06:17:19;12.15;;;8.10;;
60076;SDS011;45950;45.208;20.374;2023-05-10T06:19:46;8.80;;;7.03;;
60076;SDS011;45950;45.208;20.374;2023-05-10T06:22:14;10.82;;;7.80;;
60076;SDS011;45950;45.208;20.374;2023-05-10T06:24:41;12.77;;;8.50;;
60076;SDS011;45950;45.208;20.374;2023-05-10T06:27:08;10.75;;;8.13;;
60076;SDS011;45950;45.208;20.374;2023-05-10T06:29:44;11.18;;;9.07;;
60076;SDS011;45950;45.208;20.374;2023-05-10T06:32:11;10.80;;;8.48;;
60076;SDS011;45950;45.208;20.374;2023-05-10T06:34:37;12.13;;;8.80;;
60076;SDS011;45950;45.208;20.374;2023-05-10T06:37:04;11.63;;;9.82;;
60076;SDS011;45950;45.208;20.374;2023-05-10T06:39:32;12.07;;;9.93;;
60076;SDS011;45950;45.208;20.374;2023-05-10T06:41:58;10.25;;;8.52;;
60076;SDS011;45950;45.208;20.374;2023-05-10T06:44:26;10.45;;;8.82;;
60076;SDS011;45950;45.208;20.374;2023-05-10T06:46:53;12.60;;;9.45;;
60076;SDS011;45950;45.208;20.374;2023-05-10T06:49:20;15.68;;;8.75;;
60076;SDS011;45950;45.208;20.374;2023-05-10T06:51:47;13.35;;;9.05;;
60076;SDS011;45950;45.208;20.374;2023-05-10T06:54:14;13.23;;;8.27;;
60076;SDS011;45950;45.208;20.374;2023-05-10T06:56:42;14.20;;;9.00;;
60076;SDS011;45950;45.208;20.374;2023-05-10T06:59:08;12.60;;;8.98;;
60076;SDS011;45950;45.208;20.374;2023-05-10T07:01:35;22.17;;;9.10;;
60076;SDS011;45950;45.208;20.374;2023-05-10T07:04:02;16.55;;;8.13;;
60076;SDS011;45950;45.208;20.374;2023-05-10T07:06:28;11.45;;;7.13;;
60076;SDS011;45950;45.208;20.374;2023-05-10T07:08:55;12.57;;;8.10;;
60076;SDS011;45950;45.208;20.374;2023-05-10T07:11:22;11.63;;;7.18;;
60076;SDS011;45950;45.208;20.374;2023-05-10T07:13:50;21.35;;;7.30;;
60076;SDS011;45950;45.208;20.374;2023-05-10T07:16:16;12.27;;;7.47;;
60076;SDS011;45950;45.208;20.374;2023-05-10T07:18:43;12.32;;;6.93;;
60076;SDS011;45950;45.208;20.374;2023-05-10T07:21:09;13.85;;;6.80;;
60076;SDS011;45950;45.208;20.374;2023-05-10T07:23:36;10.57;;;7.32;;
60076;SDS011;45950;45.208;20.374;2023-05-10T07:26:03;9.40;;;6.90;;
60076;SDS011;45950;45.208;20.374;2023-05-10T07:28:29;11.90;;;7.47;;
60076;SDS011;45950;45.208;20.374;2023-05-10T07:30:57;12.23;;;8.38;;
60076;SDS011;45950;45.208;20.374;2023-05-10T07:33:24;13.00;;;8.25;;
60076;SDS011;45950;45.208;20.374;2023-05-10T07:35:51;15.30;;;8.10;;
60076;SDS011;45950;45.208;20.374;2023-05-10T07:38:17;11.73;;;7.07;;
60076;SDS011;45950;45.208;20.374;2023-05-10T07:40:44;13.27;;;8.38;;
60076;SDS011;45950;45.208;20.374;2023-05-10T07:43:10;11.57;;;6.80;;
60076;SDS011;45950;45.208;20.374;2023-05-10T07:45:37;41.55;;;8.50;;
60076;SDS011;45950;45.208;20.374;2023-05-10T07:48:05;11.23;;;6.55;;
60076;SDS011;45950;45.208;20.374;2023-05-10T07:50:32;13.95;;;7.13;;
60076;SDS011;45950;45.208;20.374;2023-05-10T07:52:58;10.25;;;6.40;;
60076;SDS011;45950;45.208;20.374;2023-05-10T07:55:25;11.82;;;6.88;;
60076;SDS011;45950;45.208;20.374;2023-05-10T07:57:52;10.18;;;6.80;;
60076;SDS011;45950;45.208;20.374;2023-05-10T08:00:19;10.05;;;6.95;;
60076;SDS011;45950;45.208;20.374;2023-05-10T08:02:46;10.10;;;7.18;;
60076;SDS011;45950;45.208;20.374;2023-05-10T08:05:14;15.32;;;7.38;;
60076;SDS011;45950;45.208;20.374;2023-05-10T08:07:40;9.27;;;5.95;;
60076;SDS011;45950;45.208;20.374;2023-05-10T08:10:08;11.13;;;6.65;;
60076;SDS011;45950;45.208;20.374;2023-05-10T08:12:36;12.15;;;6.60;;
60076;SDS011;45950;45.208;20.374;2023-05-10T08:15:03;10.98;;;6.10;;
60076;SDS011;45950;45.208;20.374;2023-05-10T08:17:29;12.02;;;7.03;;
60076;SDS011;45950;45.208;20.374;2023-05-10T08:19:56;9.35;;;5.75;;
60076;SDS011;45950;45.208;20.374;2023-05-10T08:22:24;10.10;;;5.88;;
60076;SDS011;45950;45.208;20.374;2023-05-10T08:24:51;30.10;;;7.57;;
60076;SDS011;45950;45.208;20.374;2023-05-10T08:27:24;12.50;;;6.40;;
60076;SDS011;45950;45.208;20.374;2023-05-10T08:29:50;7.97;;;6.20;;
60076;SDS011;45950;45.208;20.374;2023-05-10T08:32:17;11.38;;;5.78;;
60076;SDS011;45950;45.208;20.374;2023-05-10T08:34:43;8.88;;;5.07;;
60076;SDS011;45950;45.208;20.374;2023-05-10T08:37:10;9.73;;;5.50;;
60076;SDS011;45950;45.208;20.374;2023-05-10T08:39:39;6.50;;;4.93;;
60076;SDS011;45950;45.208;20.374;2023-05-10T08:42:06;8.13;;;4.72;;
60076;SDS011;45950;45.208;20.374;2023-05-10T08:44:34;9.63;;;4.90;;
60076;SDS011;45950;45.208;20.374;2023-05-10T08:47:02;11.20;;;4.68;;
60076;SDS011;45950;45.208;20.374;2023-05-10T08:49:30;7.88;;;4.32;;
60076;SDS011;45950;45.208;20.374;2023-05-10T08:51:57;10.45;;;4.43;;
60076;SDS011;45950;45.208;20.374;2023-05-10T08:54:24;6.93;;;4.10;;
60076;SDS011;45950;45.208;20.374;2023-05-10T08:56:55;7.53;;;4.25;;
60076;SDS011;45950;45.208;20.374;2023-05-10T08:59:22;8.52;;;4.15;;
60076;SDS011;45950;45.208;20.374;2023-05-10T09:01:48;5.32;;;3.55;;
60076;SDS011;45950;45.208;20.374;2023-05-10T09:04:16;6.22;;;3.22;;
60076;SDS011;45950;45.208;20.374;2023-05-10T09:06:43;10.50;;;3.90;;
60076;SDS011;45950;45.208;20.374;2023-05-10T09:09:09;6.30;;;3.97;;
60076;SDS011;45950;45.208;20.374;2023-05-10T09:11:36;3.45;;;3.13;;
60076;SDS011;45950;45.208;20.374;2023-05-10T09:14:04;10.50;;;3.30;;
60076;SDS011;45950;45.208;20.374;2023-05-10T09:16:31;6.90;;;3.70;;
60076;SDS011;45950;45.208;20.374;2023-05-10T09:18:57;8.40;;;4.20;;
60076;SDS011;45950;45.208;20.374;2023-05-10T09:21:24;8.27;;;3.83;;
60076;SDS011;45950;45.208;20.374;2023-05-10T09:23:51;13.23;;;3.53;;
60076;SDS011;45950;45.208;20.374;2023-05-10T09:26:21;10.02;;;3.33;;
60076;SDS011;45950;45.208;20.374;2023-05-10T09:28:51;7.28;;;3.40;;
60076;SDS011;45950;45.208;20.374;2023-05-10T09:31:20;9.63;;;3.25;;
60076;SDS011;45950;45.208;20.374;2023-05-10T09:33:46;9.65;;;4.30;;
60076;SDS011;45950;45.208;20.374;2023-05-10T09:36:13;7.68;;;3.65;;
60076;SDS011;45950;45.208;20.374;2023-05-10T09:38:46;10.10;;;3.67;;
60076;SDS011;45950;45.208;20.374;2023-05-10T09:41:17;12.50;;;3.13;;
60076;SDS011;45950;45.208;20.374;2023-05-10T09:43:44;5.22;;;2.47;;
60076;SDS011;45950;45.208;20.374;2023-05-10T09:46:10;7.95;;;3.10;;
60076;SDS011;45950;45.208;20.374;2023-05-10T09:48:41;5.28;;;2.97;;
60076;SDS011;45950;45.208;20.374;2023-05-10T09:51:08;9.07;;;3.00;;
60076;SDS011;45950;45.208;20.374;2023-05-10T09:53:35;4.75;;;2.70;;
60076;SDS011;45950;45.208;20.374;2023-05-10T09:56:02;7.18;;;3.15;;
60076;SDS011;45950;45.208;20.374;2023-05-10T09:58:28;8.00;;;3.35;;
60076;SDS011;45950;45.208;20.374;2023-05-10T10:00:55;6.22;;;2.67;;
60076;SDS011;45950;45.208;20.374;2023-05-10T10:03:23;6.45;;;2.70;;
60076;SDS011;45950;45.208;20.374;2023-05-10T10:05:51;7.20;;;2.60;;
60076;SDS011;45950;45.208;20.374;2023-05-10T10:08:18;10.38;;;2.90;;
60076;SDS011;45950;45.208;20.374;2023-05-10T10:10:45;3.15;;;2.15;;
60076;SDS011;45950;45.208;20.374;2023-05-10T10:13:13;4.85;;;2.72;;
60076;SDS011;45950;45.208;20.374;2023-05-10T10:15:39;7.80;;;2.67;;
60076;SDS011;45950;45.208;20.374;2023-05-10T10:18:07;9.60;;;2.50;;
60076;SDS011;45950;45.208;20.374;2023-05-10T10:20:38;5.85;;;2.30;;
60076;SDS011;45950;45.208;20.374;2023-05-10T10:23:06;6.05;;;3.05;;
60076;SDS011;45950;45.208;20.374;2023-05-10T10:25:34;4.40;;;2.50;;
60076;SDS011;45950;45.208;20.374;2023-05-10T10:28:05;7.53;;;2.97;;
60076;SDS011;45950;45.208;20.374;2023-05-10T10:30:35;3.95;;;2.80;;
60076;SDS011;45950;45.208;20.374;2023-05-10T10:35:55;3.13;;;2.38;;
60076;SDS011;45950;45.208;20.374;2023-05-10T10:38:25;4.80;;;3.10;;
60076;SDS011;45950;45.208;20.374;2023-05-10T10:41:01;4.07;;;2.35;;
60076;SDS011;45950;45.208;20.374;2023-05-10T10:43:28;6.22;;;2.53;;
60076;SDS011;45950;45.208;20.374;2023-05-10T10:48:50;5.43;;;3.05;;
60076;SDS011;45950;45.208;20.374;2023-05-10T10:51:18;5.03;;;2.70;;
60076;SDS011;45950;45.208;20.374;2023-05-10T10:53:47;4.00;;;2.88;;
60076;SDS011;45950;45.208;20.374;2023-05-10T10:56:13;7.30;;;3.17;;
60076;SDS011;45950;45.208;20.374;2023-05-10T10:58:40;12.77;;;3.40;;
60076;SDS011;45950;45.208;20.374;2023-05-10T11:01:11;3.95;;;3.03;;
60076;SDS011;45950;45.208;20.374;2023-05-10T11:03:38;4.55;;;2.83;;
60076;SDS011;45950;45.208;20.374;2023-05-10T11:06:04;4.70;;;2.65;;
60076;SDS011;45950;45.208;20.374;2023-05-10T11:08:32;6.80;;;3.28;;
60076;SDS011;45950;45.208;20.374;2023-05-10T11:11:04;5.47;;;2.90;;
60076;SDS011;45950;45.208;20.374;2023-05-10T11:13:32;3.38;;;2.60;;
60076;SDS011;45950;45.208;20.374;2023-05-10T11:16:09;6.85;;;2.97;;
60076;SDS011;45950;45.208;20.374;2023-05-10T11:21:24;3.55;;;2.72;;
60076;SDS011;45950;45.208;20.374;2023-05-10T11:23:51;8.73;;;3.20;;
60076;SDS011;45950;45.208;20.374;2023-05-10T11:26:22;6.03;;;3.40;;
60076;SDS011;45950;45.208;20.374;2023-05-10T11:28:51;4.82;;;3.33;;
60076;SDS011;45950;45.208;20.374;2023-05-10T11:31:19;5.10;;;2.67;;
60076;SDS011;45950;45.208;20.374;2023-05-10T11:33:48;6.05;;;3.10;;
60076;SDS011;45950;45.208;20.374;2023-05-10T11:36:15;4.88;;;3.33;;
60076;SDS011;45950;45.208;20.374;2023-05-10T11:38:43;6.18;;;3.42;;
60076;SDS011;45950;45.208;20.374;2023-05-10T11:41:10;4.65;;;2.90;;
60076;SDS011;45950;45.208;20.374;2023-05-10T11:43:39;3.70;;;2.78;;
60076;SDS011;45950;45.208;20.374;2023-05-10T11:46:06;6.35;;;3.10;;
60076;SDS011;45950;45.208;20.374;2023-05-10T11:48:33;6.03;;;3.13;;
60076;SDS011;45950;45.208;20.374;2023-05-10T11:51:00;3.45;;;2.95;;
60076;SDS011;45950;45.208;20.374;2023-05-10T11:53:27;4.78;;;3.00;;
60076;SDS011;45950;45.208;20.374;2023-05-10T11:55:54;4.55;;;3.20;;
60076;SDS011;45950;45.208;20.374;2023-05-10T11:58:20;5.10;;;3.33;;
60076;SDS011;45950;45.208;20.374;2023-05-10T12:00:49;5.00;;;2.97;;
60076;SDS011;45950;45.208;20.374;2023-05-10T12:03:16;3.47;;;2.72;;
60076;SDS011;45950;45.208;20.374;2023-05-10T12:05:43;4.50;;;2.65;;
60076;SDS011;45950;45.208;20.374;2023-05-10T12:08:13;4.40;;;2.97;;
60076;SDS011;45950;45.208;20.374;2023-05-10T12:10:39;3.13;;;2.50;;
60076;SDS011;45950;45.208;20.374;2023-05-10T12:13:10;8.27;;;2.83;;
60076;SDS011;45950;45.208;20.374;2023-05-10T12:15:37;4.13;;;2.58;;
60076;SDS011;45950;45.208;20.374;2023-05-10T12:18:05;8.10;;;3.13;;
60076;SDS011;45950;45.208;20.374;2023-05-10T12:20:31;4.93;;;2.95;;
60076;SDS011;45950;45.208;20.374;2023-05-10T12:22:58;7.55;;;2.83;;
60076;SDS011;45950;45.208;20.374;2023-05-10T12:25:29;5.28;;;2.75;;
60076;SDS011;45950;45.208;20.374;2023-05-10T12:27:57;7.95;;;4.18;;
60076;SDS011;45950;45.208;20.374;2023-05-10T12:30:26;5.35;;;2.55;;
60076;SDS011;45950;45.208;20.374;2023-05-10T12:32:53;5.53;;;2.42;;
60076;SDS011;45950;45.208;20.374;2023-05-10T12:35:21;4.82;;;2.50;;
60076;SDS011;45950;45.208;20.374;2023-05-10T12:37:49;4.05;;;2.35;;
60076;SDS011;45950;45.208;20.374;2023-05-10T12:40:16;4.75;;;2.60;;
60076;SDS011;45950;45.208;20.374;2023-05-10T12:42:43;3.75;;;2.35;;
60076;SDS011;45950;45.208;20.374;2023-05-10T12:45:10;6.25;;;2.38;;
60076;SDS011;45950;45.208;20.374;2023-05-10T12:47:37;4.80;;;2.50;;
60076;SDS011;45950;45.208;20.374;2023-05-10T12:50:04;4.20;;;1.98;;
60076;SDS011;45950;45.208;20.374;2023-05-10T12:52:32;4.65;;;2.08;;
60076;SDS011;45950;45.208;20.374;2023-05-10T12:54:59;6.55;;;2.17;;
60076;SDS011;45950;45.208;20.374;2023-05-10T12:57:26;4.45;;;2.30;;
60076;SDS011;45950;45.208;20.374;2023-05-10T12:59:52;6.30;;;2.25;;
60076;SDS011;45950;45.208;20.374;2023-05-10T13:02:19;5.00;;;2.30;;
60076;SDS011;45950;45.208;20.374;2023-05-10T13:04:46;3.95;;;1.80;;
60076;SDS011;45950;45.208;20.374;2023-05-10T13:07:13;7.53;;;2.10;;
60076;SDS011;45950;45.208;20.374;2023-05-10T13:09:41;3.67;;;2.00;;
60076;SDS011;45950;45.208;20.374;2023-05-10T13:12:08;4.35;;;2.30;;
60076;SDS011;45950;45.208;20.374;2023-05-10T13:14:35;3.17;;;2.05;;
60076;SDS011;45950;45.208;20.374;2023-05-10T13:17:01;4.47;;;2.00;;
60076;SDS011;45950;45.208;20.374;2023-05-10T13:19:28;4.05;;;2.08;;
60076;SDS011;45950;45.208;20.374;2023-05-10T13:21:54;4.55;;;1.98;;
60076;SDS011;45950;45.208;20.374;2023-05-10T13:24:21;3.10;;;2.00;;
60076;SDS011;45950;45.208;20.374;2023-05-10T13:26:49;4.80;;;2.00;;
60076;SDS011;45950;45.208;20.374;2023-05-10T13:29:16;2.83;;;2.15;;
60076;SDS011;45950;45.208;20.374;2023-05-10T13:31:43;4.75;;;2.28;;
60076;SDS011;45950;45.208;20.374;2023-05-10T13:34:09;3.45;;;1.65;;
60076;SDS011;45950;45.208;20.374;2023-05-10T13:36:36;3.55;;;2.00;;
60076;SDS011;45950;45.208;20.374;2023-05-10T13:39:03;4.47;;;2.05;;
60076;SDS011;45950;45.208;20.374;2023-05-10T13:41:30;4.72;;;2.45;;
60076;SDS011;45950;45.208;20.374;2023-05-10T13:43:58;3.95;;;2.38;;
60076;SDS011;45950;45.208;20.374;2023-05-10T13:46:25;5.05;;;1.85;;
60076;SDS011;45950;45.208;20.374;2023-05-10T13:48:51;2.92;;;1.80;;
60076;SDS011;45950;45.208;20.374;2023-05-10T13:51:18;4.22;;;2.33;;
60076;SDS011;45950;45.208;20.374;2023-05-10T13:53:45;7.38;;;2.00;;
60076;SDS011;45950;45.208;20.374;2023-05-10T13:56:12;4.22;;;2.05;;
60076;SDS011;45950;45.208;20.374;2023-05-10T13:58:39;4.07;;;2.00;;
60076;SDS011;45950;45.208;20.374;2023-05-10T14:01:07;3.08;;;1.80;;
60076;SDS011;45950;45.208;20.374;2023-05-10T14:03:33;2.80;;;1.70;;
60076;SDS011;45950;45.208;20.374;2023-05-10T14:06:00;4.43;;;2.00;;
60076;SDS011;45950;45.208;20.374;2023-05-10T14:08:26;5.70;;;2.08;;
60076;SDS011;45950;45.208;20.374;2023-05-10T14:10:53;4.07;;;2.28;;
60076;SDS011;45950;45.208;20.374;2023-05-10T14:13:21;3.25;;;1.90;;
60076;SDS011;45950;45.208;20.374;2023-05-10T14:15:49;2.88;;;1.83;;
60076;SDS011;45950;45.208;20.374;2023-05-10T14:18:17;4.38;;;1.50;;
60076;SDS011;45950;45.208;20.374;2023-05-10T14:20:43;7.78;;;1.58;;
60076;SDS011;45950;45.208;20.374;2023-05-10T14:23:10;3.30;;;2.03;;
60076;SDS011;45950;45.208;20.374;2023-05-10T14:25:36;5.35;;;2.10;;
60076;SDS011;45950;45.208;20.374;2023-05-10T14:28:04;5.75;;;2.03;;
60076;SDS011;45950;45.208;20.374;2023-05-10T14:30:33;4.35;;;1.73;;
60076;SDS011;45950;45.208;20.374;2023-05-10T14:33:00;5.55;;;1.75;;
60076;SDS011;45950;45.208;20.374;2023-05-10T14:35:28;2.80;;;1.75;;
60076;SDS011;45950;45.208;20.374;2023-05-10T14:37:56;5.18;;;2.13;;
60076;SDS011;45950;45.208;20.374;2023-05-10T14:40:22;4.05;;;1.95;;
60076;SDS011;45950;45.208;20.374;2023-05-10T14:42:49;4.05;;;1.88;;
60076;SDS011;45950;45.208;20.374;2023-05-10T14:45:17;1.85;;;1.63;;
60076;SDS011;45950;45.208;20.374;2023-05-10T14:47:44;4.55;;;2.05;;